createdAt,value
2022-12-11T00:01:12.240Z,19.45
2022-12-11T00:03:40.565Z,19.88
2022-12-11T00:06:09.285Z,19.27
2022-12-11T00:08:38.908Z,19.98
2022-12-11T00:11:08.871Z,20.50
2022-12-11T00:13:36.740Z,19.60
2022-12-11T00:16:04.844Z,18.55
2022-12-11T00:18:32.811Z,20.67
2022-12-11T00:21:02.147Z,21.13
2022-12-11T00:23:30.487Z,22.02
2022-12-11T00:25:59.797Z,21.75
2022-12-11T00:28:27.768Z,20.63
2022-12-11T00:30:55.746Z,20.13
2022-12-11T00:33:23.632Z,18.33
2022-12-11T00:35:51.528Z,19.50
2022-12-11T00:38:21.939Z,18.13
2022-12-11T00:40:50.013Z,17.73
2022-12-11T00:43:19.301Z,17.42
2022-12-11T00:45:48.713Z,17.55
2022-12-11T00:48:16.861Z,18.85
2022-12-11T00:50:44.774Z,18.00
2022-12-11T00:53:12.721Z,17.05
2022-12-11T00:55:41.794Z,19.35
2022-12-11T00:58:10.100Z,19.95
2022-12-11T01:00:39.978Z,20.65
2022-12-11T01:03:08.712Z,22.58
2022-12-11T01:05:36.973Z,23.73
2022-12-11T01:08:05.214Z,22.95
2022-12-11T01:10:33.999Z,21.33
2022-12-11T01:13:03.865Z,21.98
2022-12-11T01:15:36.455Z,21.70
2022-12-11T01:18:09.321Z,20.55
2022-12-11T01:20:39.036Z,20.13
2022-12-11T01:23:07.578Z,20.02
2022-12-11T01:25:38.099Z,19.25
2022-12-11T01:28:06.487Z,18.27
2022-12-11T01:30:35.079Z,18.73
2022-12-11T01:33:03.168Z,18.95
2022-12-11T01:35:32.597Z,16.67
2022-12-11T01:38:00.582Z,16.08
2022-12-11T01:40:28.555Z,16.90
2022-12-11T01:42:56.541Z,15.95
2022-12-11T01:45:32.187Z,18.73
2022-12-11T01:48:07.343Z,19.88
2022-12-11T01:50:40.506Z,20.90
2022-12-11T01:53:11.401Z,20.08
2022-12-11T01:55:40.760Z,20.50
2022-12-11T01:58:11.608Z,19.90
2022-12-11T02:00:39.519Z,18.92
2022-12-11T02:03:07.458Z,21.67
2022-12-11T02:05:36.720Z,20.70
2022-12-11T02:08:05.082Z,20.05
2022-12-11T02:10:49.569Z,19.95
2022-12-11T02:13:22.487Z,19.00
2022-12-11T02:15:56.681Z,20.13
2022-12-11T02:18:32.112Z,19.45
2022-12-11T02:21:08.126Z,18.48
2022-12-11T02:24:01.408Z,19.67
2022-12-11T02:26:57.262Z,20.73
2022-12-11T02:29:34.711Z,22.63
2022-12-11T02:32:07.500Z,21.73
2022-12-11T02:34:42.095Z,21.55
2022-12-11T02:37:16.172Z,22.23
2022-12-11T02:39:45.537Z,21.98
2022-12-11T02:42:16.213Z,22.25
2022-12-11T02:44:47.593Z,22.90
2022-12-11T02:47:17.521Z,22.92
2022-12-11T02:49:48.445Z,23.35
2022-12-11T02:52:19.808Z,23.63
2022-12-11T02:54:49.088Z,23.27
2022-12-11T02:57:23.024Z,22.50
2022-12-11T02:59:52.365Z,22.75
2022-12-11T03:02:20.358Z,22.40
2022-12-11T03:04:48.939Z,21.27
2022-12-11T03:07:19.376Z,21.33
2022-12-11T03:09:48.554Z,21.60
2022-12-11T03:12:21.539Z,19.95
2022-12-11T03:14:50.417Z,17.73
2022-12-11T03:17:23.197Z,19.13
2022-12-11T03:19:58.303Z,19.38
2022-12-11T03:22:34.047Z,19.02
2022-12-11T03:25:05.130Z,19.00
2022-12-11T03:27:37.981Z,18.65
2022-12-11T03:30:08.423Z,18.98
2022-12-11T03:32:42.146Z,18.25
2022-12-11T03:35:14.651Z,17.73
2022-12-11T03:37:45.700Z,17.33
2022-12-11T03:40:16.972Z,17.10
2022-12-11T03:42:48.229Z,17.75
2022-12-11T03:45:17.960Z,14.73
2022-12-11T03:47:48.629Z,15.27
2022-12-11T03:50:19.273Z,15.23
2022-12-11T03:52:48.572Z,13.40
2022-12-11T03:55:18.857Z,12.70
2022-12-11T03:57:46.936Z,9.73
2022-12-11T04:00:17.921Z,9.95
2022-12-11T04:03:12.953Z,10.00
2022-12-11T04:05:42.674Z,10.57
2022-12-11T04:08:11.182Z,13.88
2022-12-11T04:10:39.264Z,14.60
2022-12-11T04:13:07.690Z,13.13
2022-12-11T04:15:34.821Z,12.48
2022-12-11T04:18:36.685Z,12.32
2022-12-11T04:21:22.374Z,10.95
2022-12-11T04:24:07.637Z,9.35
2022-12-11T04:26:35.620Z,8.85
2022-12-11T04:29:03.552Z,8.48
2022-12-11T04:31:31.488Z,9.10
2022-12-11T04:34:01.092Z,8.38
2022-12-11T04:36:29.081Z,8.55
2022-12-11T04:38:57.021Z,8.13
2022-12-11T04:41:24.907Z,8.25
2022-12-11T04:43:52.868Z,8.77
2022-12-11T04:46:23.314Z,10.13
2022-12-11T04:48:57.074Z,15.07
2022-12-11T04:51:27.591Z,16.40
2022-12-11T04:53:55.785Z,20.20
2022-12-11T04:56:23.690Z,23.00
2022-12-11T04:58:51.661Z,22.80
2022-12-11T05:01:21.999Z,21.98
2022-12-11T05:03:50.354Z,24.65
2022-12-11T05:06:18.326Z,24.88
2022-12-11T05:08:47.589Z,24.85
2022-12-11T05:11:17.465Z,25.50
2022-12-11T05:13:46.518Z,26.73
2022-12-11T05:16:18.952Z,25.58
2022-12-11T05:18:47.383Z,23.45
2022-12-11T05:21:16.296Z,24.38
2022-12-11T05:23:44.396Z,22.45
2022-12-11T05:26:16.236Z,23.02
2022-12-11T05:28:44.449Z,20.90
2022-12-11T05:31:16.357Z,22.85
2022-12-11T05:33:44.339Z,22.60
2022-12-11T05:36:16.853Z,19.73
2022-12-11T05:38:44.833Z,20.60
2022-12-11T05:41:16.075Z,19.63
2022-12-11T05:43:44.453Z,18.33
2022-12-11T05:46:15.540Z,18.45
2022-12-11T05:48:44.188Z,18.60
2022-12-11T05:51:12.571Z,17.02
2022-12-11T05:53:42.212Z,16.73
2022-12-11T05:56:15.503Z,16.17
2022-12-11T05:58:44.811Z,15.80
2022-12-11T06:01:16.364Z,15.95
2022-12-11T06:03:44.664Z,16.00
2022-12-11T06:06:12.964Z,16.20
2022-12-11T06:08:41.093Z,14.70
2022-12-11T06:11:10.027Z,16.35
2022-12-11T06:13:39.301Z,15.00
2022-12-11T06:16:09.345Z,14.88
2022-12-11T06:18:38.013Z,15.50
2022-12-11T06:21:13.673Z,14.70
2022-12-11T06:23:42.788Z,14.90
2022-12-11T06:26:11.583Z,12.98
2022-12-11T06:28:40.814Z,13.38
2022-12-11T06:31:09.012Z,13.15
2022-12-11T06:33:37.128Z,13.43
2022-12-11T06:36:09.853Z,14.43
2022-12-11T06:38:38.485Z,13.15
2022-12-11T06:41:08.068Z,13.45
2022-12-11T06:43:37.875Z,13.98
2022-12-11T06:46:08.401Z,12.63
2022-12-11T06:48:36.919Z,12.38
2022-12-11T06:51:08.169Z,11.90
2022-12-11T06:53:36.577Z,13.10
2022-12-11T06:56:05.497Z,13.07
2022-12-11T06:58:34.943Z,11.63
2022-12-11T07:01:03.083Z,12.48
2022-12-11T07:03:33.504Z,11.80
2022-12-11T07:06:02.801Z,12.82
2022-12-11T07:08:31.972Z,14.05
2022-12-11T07:11:04.735Z,16.27
2022-12-11T07:13:33.693Z,16.02
2022-12-11T07:16:01.959Z,17.02
2022-12-11T07:18:30.051Z,17.27
2022-12-11T07:21:01.074Z,19.02
2022-12-11T07:23:29.562Z,21.10
2022-12-11T07:25:57.935Z,18.13
2022-12-11T07:28:26.246Z,17.40
2022-12-11T07:30:54.129Z,16.65
2022-12-11T07:33:22.023Z,16.33
2022-12-11T07:35:49.904Z,16.40
2022-12-11T07:38:19.224Z,14.82
2022-12-11T07:40:47.152Z,15.88
2022-12-11T07:43:15.057Z,15.57
2022-12-11T07:45:43.443Z,16.88
2022-12-11T07:48:12.679Z,19.17
2022-12-11T07:50:40.580Z,23.52
2022-12-11T07:53:08.728Z,24.95
2022-12-11T07:55:45.483Z,17.80
2022-12-11T07:58:13.425Z,18.70
2022-12-11T08:00:41.372Z,15.93
2022-12-11T08:03:09.955Z,17.80
2022-12-11T08:05:37.973Z,17.35
2022-12-11T08:08:06.515Z,18.77
2022-12-11T08:10:34.439Z,18.55
2022-12-11T08:13:03.714Z,18.40
2022-12-11T08:15:31.590Z,17.42
2022-12-11T08:17:59.549Z,16.45
2022-12-11T08:20:27.527Z,14.55
2022-12-11T08:22:59.222Z,15.98
2022-12-11T08:25:27.456Z,15.45
2022-12-11T08:27:55.355Z,16.63
2022-12-11T08:30:24.766Z,13.88
2022-12-11T08:32:52.778Z,15.10
2022-12-11T08:35:20.735Z,13.85
2022-12-11T08:37:48.679Z,13.77
2022-12-11T08:40:16.697Z,15.10
2022-12-11T08:42:44.739Z,12.63
2022-12-11T08:45:13.121Z,12.68
2022-12-11T08:47:42.995Z,13.07
2022-12-11T08:50:11.376Z,11.57
2022-12-11T08:52:39.275Z,11.38
2022-12-11T08:55:08.220Z,12.30
2022-12-11T08:57:39.665Z,11.25
2022-12-11T09:00:10.057Z,11.00
2022-12-11T09:02:38.225Z,11.18
2022-12-11T09:05:10.146Z,10.52
2022-12-11T09:07:43.949Z,10.93
2022-12-11T09:10:12.064Z,11.52
2022-12-11T09:12:40.087Z,10.93
2022-12-11T09:15:09.163Z,11.07
2022-12-11T09:17:37.260Z,24.60
2022-12-11T09:20:07.703Z,23.10
2022-12-11T09:22:35.589Z,14.82
2022-12-11T09:25:03.612Z,26.27
2022-12-11T09:27:31.524Z,22.20
2022-12-11T09:29:59.471Z,23.35
2022-12-11T09:32:27.396Z,24.70
2022-12-11T09:34:55.377Z,22.98
2022-12-11T09:37:24.880Z,22.15
2022-12-11T09:39:54.462Z,21.20
2022-12-11T09:42:28.940Z,24.20
2022-12-11T09:45:02.258Z,21.95
2022-12-11T09:47:37.140Z,22.48
2022-12-11T09:50:13.948Z,31.70
2022-12-11T09:52:54.350Z,31.98
2022-12-11T09:55:25.149Z,28.17
2022-12-11T09:58:01.608Z,20.63
2022-12-11T10:00:34.287Z,15.90
2022-12-11T10:03:25.308Z,12.70
2022-12-11T10:06:04.257Z,12.43
2022-12-11T10:08:41.623Z,12.20
2022-12-11T10:11:34.103Z,24.05
2022-12-11T10:14:11.472Z,13.48
2022-12-11T10:16:44.317Z,12.85
2022-12-11T10:19:18.238Z,13.45
2022-12-11T10:21:47.733Z,13.38
2022-12-11T10:24:48.878Z,12.27
2022-12-11T10:27:19.406Z,12.73
2022-12-11T10:29:48.642Z,11.65
2022-12-11T10:32:24.578Z,13.30
2022-12-11T10:35:00.459Z,12.60
2022-12-11T10:37:30.857Z,12.52
2022-12-11T10:40:00.216Z,12.40
2022-12-11T10:42:28.115Z,12.20
2022-12-11T10:45:01.876Z,11.07
2022-12-11T10:47:34.041Z,12.75
2022-12-11T10:50:03.820Z,10.75
2022-12-11T10:52:36.049Z,11.35
2022-12-11T10:55:08.611Z,12.70
2022-12-11T10:57:40.934Z,12.65
2022-12-11T11:00:32.295Z,11.52
2022-12-11T11:03:00.914Z,12.63
2022-12-11T11:05:31.949Z,11.85
2022-12-11T11:08:22.508Z,11.63
2022-12-11T11:10:57.729Z,12.40
2022-12-11T11:13:27.652Z,10.98
2022-12-11T11:16:02.461Z,11.48
2022-12-11T11:18:31.563Z,11.32
2022-12-11T11:21:00.620Z,11.23
2022-12-11T11:23:29.288Z,11.40
2022-12-11T11:26:01.582Z,10.70
2022-12-11T11:28:31.841Z,10.45
2022-12-11T11:31:04.485Z,10.80
2022-12-11T11:33:33.968Z,10.70
2022-12-11T11:36:03.498Z,14.50
2022-12-11T11:38:35.615Z,13.27
2022-12-11T11:41:15.077Z,10.13
2022-12-11T11:43:47.496Z,10.52
2022-12-11T11:46:21.163Z,13.52
2022-12-11T11:48:57.018Z,13.00
2022-12-11T11:51:30.371Z,14.77
2022-12-11T11:54:01.574Z,15.88
2022-12-11T11:56:35.070Z,14.48
2022-12-11T11:59:12.385Z,11.30
2022-12-11T12:01:42.519Z,10.68
2022-12-11T12:04:11.933Z,11.00
2022-12-11T12:07:06.152Z,10.32
2022-12-11T12:09:48.168Z,11.68
2022-12-11T12:12:31.044Z,11.40
2022-12-11T12:15:20.047Z,8.95
2022-12-11T12:17:55.666Z,8.85
2022-12-11T12:20:32.009Z,8.93
2022-12-11T12:23:12.441Z,10.40
2022-12-11T12:25:45.370Z,10.15
2022-12-11T12:28:27.045Z,10.60
2022-12-11T12:31:10.071Z,10.35
2022-12-11T12:33:47.201Z,11.15
2022-12-11T12:36:23.026Z,11.27
2022-12-11T12:38:56.223Z,11.02
2022-12-11T12:41:32.887Z,11.85
2022-12-11T12:44:13.484Z,11.50
2022-12-11T12:46:51.697Z,8.68
2022-12-11T12:49:29.289Z,8.40
2022-12-11T12:51:58.137Z,8.52
2022-12-11T12:54:29.909Z,7.85
2022-12-11T12:57:03.706Z,7.40
2022-12-11T12:59:33.012Z,8.63
2022-12-11T13:02:03.786Z,8.25
2022-12-11T13:04:58.652Z,9.30
2022-12-11T13:07:30.700Z,8.93
2022-12-11T13:10:01.856Z,8.65
2022-12-11T13:12:44.681Z,6.68
2022-12-11T13:15:27.460Z,7.18
2022-12-11T13:17:55.498Z,8.48
2022-12-11T13:20:25.318Z,10.38
2022-12-11T13:23:08.945Z,11.07
2022-12-11T13:25:52.591Z,13.02
2022-12-11T13:28:29.905Z,12.43
2022-12-11T13:31:00.956Z,14.50
2022-12-11T13:33:30.008Z,13.05
2022-12-11T13:36:24.402Z,13.82
2022-12-11T13:38:56.915Z,11.75
2022-12-11T13:41:25.865Z,12.10
2022-12-11T13:43:54.540Z,13.25
2022-12-11T13:46:27.025Z,13.75
2022-12-11T13:49:00.793Z,13.55
2022-12-11T13:51:30.568Z,14.48
2022-12-11T13:54:17.349Z,13.98
2022-12-11T13:57:05.589Z,13.43
2022-12-11T13:59:35.858Z,13.75
2022-12-11T14:02:16.359Z,13.27
2022-12-11T14:04:44.697Z,12.75
2022-12-11T14:07:13.435Z,13.60
2022-12-11T14:09:45.165Z,13.07
2022-12-11T14:12:18.506Z,13.65
2022-12-11T14:14:50.854Z,14.55
2022-12-11T14:17:27.134Z,19.63
2022-12-11T14:19:56.990Z,13.75
2022-12-11T14:22:29.793Z,13.88
2022-12-11T14:25:00.297Z,14.18
2022-12-11T14:27:28.849Z,14.45
2022-12-11T14:29:57.241Z,14.25
2022-12-11T14:32:33.622Z,14.60
2022-12-11T14:35:05.379Z,14.40
2022-12-11T14:37:36.600Z,14.88
2022-12-11T14:40:08.395Z,15.18
2022-12-11T14:42:42.369Z,16.27
2022-12-11T14:45:22.415Z,15.05
2022-12-11T14:47:53.132Z,16.52
2022-12-11T14:50:23.756Z,16.15
2022-12-11T14:52:56.229Z,15.07
2022-12-11T14:55:29.389Z,19.25
2022-12-11T14:58:00.006Z,14.80
2022-12-11T15:00:30.282Z,14.05
2022-12-11T15:03:01.919Z,11.75
2022-12-11T15:05:33.346Z,19.55
2022-12-11T15:08:24.354Z,21.10
2022-12-11T15:11:04.057Z,18.95
2022-12-11T15:13:32.549Z,22.55
2022-12-11T15:16:01.424Z,16.67
2022-12-11T15:18:33.117Z,15.65
2022-12-11T15:21:05.108Z,14.90
2022-12-11T15:23:39.409Z,13.15
2022-12-11T15:26:07.484Z,12.07
2022-12-11T15:28:37.285Z,10.80
2022-12-11T15:31:10.271Z,10.93
2022-12-11T15:33:48.607Z,9.90
2022-12-11T15:36:27.703Z,9.93
2022-12-11T15:38:56.347Z,11.63
2022-12-11T15:41:25.008Z,10.43
2022-12-11T15:43:58.594Z,12.32
2022-12-11T15:46:27.344Z,13.00
2022-12-11T15:49:13.538Z,16.73
2022-12-11T15:51:43.259Z,17.17
2022-12-11T15:54:11.470Z,18.45
2022-12-11T15:56:39.919Z,17.10
2022-12-11T15:59:07.997Z,18.58
2022-12-11T16:01:36.081Z,18.27
2022-12-11T16:04:05.433Z,20.55
2022-12-11T16:06:35.280Z,19.00
2022-12-11T16:09:04.977Z,17.23
2022-12-11T16:11:33.097Z,17.63
2022-12-11T16:14:04.236Z,16.05
2022-12-11T16:16:32.319Z,15.70
2022-12-11T16:19:00.702Z,14.73
2022-12-11T16:21:29.114Z,14.52
2022-12-11T16:23:58.426Z,13.55
2022-12-11T16:26:26.627Z,15.40
2022-12-11T16:28:54.553Z,14.73
2022-12-11T16:31:24.905Z,15.00
2022-12-11T16:33:52.947Z,15.00
2022-12-11T16:36:21.220Z,14.88
2022-12-11T16:38:53.843Z,14.85
2022-12-11T16:41:23.947Z,15.70
2022-12-11T16:43:52.130Z,14.88
2022-12-11T16:46:20.971Z,15.82
2022-12-11T16:48:49.408Z,15.65
2022-12-11T16:51:18.051Z,15.43
2022-12-11T16:53:46.131Z,15.63
2022-12-11T16:56:14.053Z,17.27
2022-12-11T16:58:45.331Z,15.52
2022-12-11T17:01:14.745Z,16.55
2022-12-11T17:03:44.443Z,16.75
2022-12-11T17:06:14.200Z,16.55
2022-12-11T17:08:42.756Z,16.65
2022-12-11T17:11:12.960Z,17.05
2022-12-11T17:13:41.148Z,17.58
2022-12-11T17:16:12.678Z,17.17
2022-12-11T17:18:41.729Z,17.13
2022-12-11T17:21:11.379Z,18.15
2022-12-11T17:23:39.928Z,17.48
2022-12-11T17:26:08.989Z,18.73
2022-12-11T17:28:40.429Z,24.95
2022-12-11T17:31:15.085Z,21.27
2022-12-11T17:33:43.152Z,30.85
2022-12-11T17:36:14.897Z,23.42
2022-12-11T17:38:42.826Z,20.73
2022-12-11T17:41:20.092Z,19.80
2022-12-11T17:43:49.670Z,21.02
2022-12-11T17:46:19.958Z,22.20
2022-12-11T17:48:49.344Z,21.38
2022-12-11T17:51:23.974Z,19.73
2022-12-11T17:53:52.687Z,20.45
2022-12-11T17:56:20.774Z,18.98
2022-12-11T17:58:48.966Z,21.30
2022-12-11T18:01:18.757Z,21.73
2022-12-11T18:03:47.021Z,25.67
2022-12-11T18:06:16.764Z,29.77
2022-12-11T18:08:46.016Z,26.70
2022-12-11T18:11:15.983Z,23.17
2022-12-11T18:13:45.122Z,30.98
2022-12-11T18:16:16.961Z,29.55
2022-12-11T18:18:47.209Z,26.38
2022-12-11T18:21:17.069Z,23.10
2022-12-11T18:23:45.656Z,36.95
2022-12-11T18:26:14.497Z,27.48
2022-12-11T18:28:44.453Z,26.02
2022-12-11T18:31:17.874Z,25.00
2022-12-11T18:33:48.709Z,24.65
2022-12-11T18:36:18.121Z,20.98
2022-12-11T18:38:47.032Z,21.88
2022-12-11T18:41:18.737Z,27.83
2022-12-11T18:43:46.956Z,25.20
2022-12-11T18:46:17.539Z,20.63
2022-12-11T18:48:48.567Z,24.05
2022-12-11T18:51:18.922Z,24.30
2022-12-11T18:53:47.532Z,22.75
2022-12-11T18:56:19.783Z,24.13
2022-12-11T18:58:48.199Z,24.83
2022-12-11T19:01:20.675Z,22.83
2022-12-11T19:03:51.395Z,23.27
2022-12-11T19:06:21.605Z,20.73
2022-12-11T19:08:49.889Z,22.13
2022-12-11T19:11:20.335Z,24.30
2022-12-11T19:13:50.891Z,24.77
2022-12-11T19:16:19.587Z,23.70
2022-12-11T19:18:51.125Z,24.45
2022-12-11T19:21:20.313Z,23.13
2022-12-11T19:23:48.658Z,23.77
2022-12-11T19:26:19.093Z,24.65
2022-12-11T19:28:47.491Z,25.08
2022-12-11T19:31:19.587Z,26.95
2022-12-11T19:33:47.759Z,30.33
2022-12-11T19:36:18.757Z,29.27
2022-12-11T19:38:47.841Z,26.10
2022-12-11T19:41:18.732Z,25.27
2022-12-11T19:43:47.238Z,23.95
2022-12-11T19:46:16.017Z,22.70
2022-12-11T19:48:44.267Z,21.92
2022-12-11T19:51:15.517Z,30.55
2022-12-11T19:53:46.114Z,34.90
2022-12-11T19:56:14.775Z,32.47
2022-12-11T19:58:43.313Z,28.15
2022-12-11T20:01:18.426Z,30.30
2022-12-11T20:03:46.609Z,27.45
2022-12-11T20:06:16.531Z,24.00
2022-12-11T20:08:48.214Z,22.73
2022-12-11T20:11:18.900Z,19.92
2022-12-11T20:13:47.356Z,20.90
2022-12-11T20:16:16.798Z,20.02
2022-12-11T20:18:44.881Z,19.10
2022-12-11T20:21:15.171Z,18.25
2022-12-11T20:23:47.600Z,20.05
2022-12-11T20:26:18.614Z,19.60
2022-12-11T20:28:50.383Z,19.30
2022-12-11T20:31:24.103Z,17.83
2022-12-11T20:33:53.912Z,18.90
2022-12-11T20:36:23.635Z,18.77
2022-12-11T20:38:53.714Z,17.65
2022-12-11T20:41:23.986Z,15.65
2022-12-11T20:43:53.913Z,16.83
2022-12-11T20:46:24.976Z,16.50
2022-12-11T20:48:53.648Z,15.65
2022-12-11T20:51:26.007Z,17.15
2022-12-11T20:53:59.239Z,15.38
2022-12-11T20:56:29.979Z,14.52
2022-12-11T20:58:58.796Z,16.08
2022-12-11T21:01:30.819Z,15.57
2022-12-11T21:03:59.303Z,14.77
2022-12-11T21:06:30.977Z,13.95
2022-12-11T21:09:02.080Z,14.48
2022-12-11T21:11:30.523Z,19.75
2022-12-11T21:13:58.523Z,25.58
2022-12-11T21:16:26.608Z,20.73
2022-12-11T21:18:56.233Z,23.40
2022-12-11T21:21:24.829Z,27.73
2022-12-11T21:23:53.501Z,24.17
2022-12-11T21:26:22.896Z,27.73
2022-12-11T21:28:51.175Z,33.70
2022-12-11T21:31:20.710Z,29.05
2022-12-11T21:33:52.042Z,28.60
2022-12-11T21:36:19.957Z,33.72
2022-12-11T21:38:48.133Z,37.80
2022-12-11T21:41:17.610Z,35.80
2022-12-11T21:46:36.829Z,31.35
2022-12-11T21:49:05.261Z,33.80
2022-12-11T21:51:42.563Z,31.17
2022-12-11T21:54:15.436Z,30.92
2022-12-11T21:56:43.637Z,30.63
2022-12-11T21:59:12.939Z,61.00
2022-12-11T22:01:43.003Z,29.80
2022-12-11T22:04:11.820Z,26.17
2022-12-11T22:06:40.173Z,25.83
2022-12-11T22:09:08.085Z,23.58
2022-12-11T22:11:37.056Z,22.20
2022-12-11T22:14:06.804Z,20.67
2022-12-11T22:16:36.763Z,23.88
2022-12-11T22:19:04.896Z,23.17
2022-12-11T22:21:32.824Z,22.63
2022-12-11T22:24:00.954Z,19.33
2022-12-11T22:26:29.851Z,20.05
2022-12-11T22:28:58.272Z,19.73
2022-12-11T22:31:27.838Z,20.48
2022-12-11T22:33:57.404Z,19.48
2022-12-11T22:36:26.902Z,19.75
2022-12-11T22:38:55.460Z,19.17
2022-12-11T22:41:26.332Z,17.98
2022-12-11T22:43:54.498Z,18.75
2022-12-11T22:46:25.290Z,18.75
2022-12-11T22:48:53.346Z,19.27
2022-12-11T22:51:23.075Z,19.70
2022-12-11T22:53:51.008Z,20.55
2022-12-11T22:56:19.043Z,20.83
2022-12-11T22:58:46.916Z,20.10
2022-12-11T23:01:18.073Z,19.98
2022-12-11T23:03:46.271Z,19.67
2022-12-11T23:06:16.302Z,20.98
2022-12-11T23:08:46.302Z,21.15
2022-12-11T23:11:15.537Z,20.98
2022-12-11T23:13:43.769Z,21.85
2022-12-11T23:16:12.809Z,21.60
2022-12-11T23:18:40.741Z,21.55
2022-12-11T23:21:09.061Z,20.40
2022-12-11T23:23:37.264Z,20.38
2022-12-11T23:26:10.773Z,20.38
2022-12-11T23:28:39.035Z,20.48
2022-12-11T23:31:09.909Z,21.05
2022-12-11T23:33:37.999Z,20.35
2022-12-11T23:36:06.372Z,20.20
2022-12-11T23:38:36.754Z,21.17
2022-12-11T23:41:07.506Z,22.73
2022-12-11T23:43:36.406Z,20.92
2022-12-11T23:46:04.788Z,20.52
2022-12-11T23:48:32.746Z,20.88
2022-12-11T23:51:01.133Z,21.25
2022-12-11T23:53:29.435Z,20.92
2022-12-11T23:55:57.548Z,20.45
2022-12-11T23:58:26.777Z,20.13
